Daily Tabular Data
[Select Refresh to Update]


8/19/18
Time         Wind Dir   Wind Spd  Wind Gust     Hum In   Humidity    Temp In       Temp  Raw Barom   Tot Rain Wind Chill Heat Ix In Heat Index  Dew Point  DailyRain   HourRain   RainRate
                            mph        mph          %          %         F         F         in         in         F         F         F         F         in         in      in/hr
12:00am           149          0          3         64         87       76.2       70.0      29.12       0.00       70.0       78.5       75.2       66.0       0.00       0.00      0.000
12:30am           169          2          4         65         87       76.1       71.8      29.11       0.00       71.8       78.5       77.0       67.7       0.00       0.00      0.000
1:00am            171          0          4         65         87       75.8       70.8      29.10       0.00       70.8       78.2       76.0       66.7       0.00       0.00      0.000
1:30am            171          0          0         65         87       75.5       69.7      29.09       0.00       69.7       77.9       74.9       65.7       0.00       0.00      0.000
2:00am            164          0          3         65         88       75.2       68.6      29.09       0.00       68.6       77.6       73.9       64.9       0.00       0.00      0.000
2:30am            157          0          4         65         88       74.8       68.3      29.08       0.00       68.3       77.2       73.6       64.6       0.00       0.00      0.000
3:00am            172          0          1         66         89       74.5       68.0      29.09       0.00       68.0       77.0       73.5       64.6       0.00       0.00      0.000
3:30am            144          1          4         66         89       74.3       68.0      29.09       0.00       68.0       76.8       73.5       64.6       0.00       0.00      0.000
4:00am            144          0          5         66         89       74.1       67.9      29.09       0.00       67.9       76.6       73.4       64.5       0.00       0.00      0.000
4:30am            171          0          0         66         89       74.0       67.6      29.08       0.00       67.6       76.5       73.1       64.2       0.00       0.00      0.000
5:00am            147          0          0         66         90       73.7       67.4      29.08       0.00       67.4       76.2       73.0       64.4       0.00       0.00      0.000
5:30am            149          0          0         67         90       73.4       67.3      29.09       0.00       67.3       76.0       72.9       64.3       0.00       0.00      0.000
6:00am            162          0          0         67         91       73.1       67.0      29.10       0.00       67.0       75.7       72.8       64.3       0.00       0.00      0.000
6:30am            145          0          0         68         91       72.8       66.7      29.10       0.00       66.7       75.5       72.5       64.0       0.00       0.00      0.000
7:00am            140          0          0         67         91       73.6       67.4      29.10       0.00       67.4       76.2       73.2       64.7       0.00       0.00      0.000
7:30am            184          0          3         65         85       75.0       70.9      29.10       0.00       70.9       77.4       75.8       66.2       0.00       0.00      0.000
8:00am            194          0          3         63         81       75.7       73.6      29.11       0.00       73.6       77.8       78.0       67.4       0.00       0.00      0.000
8:30am            186          0          3         63         78       76.1       74.4      29.11       0.00       74.4       78.2       78.4       67.1       0.00       0.00      0.000
9:00am            195          0          4         62         73       76.5       76.8      29.11       0.00       76.8       78.5       80.1       67.5       0.00       0.00      0.000
9:30am            319          0          4         62         71       76.9       78.0      29.10       0.00       78.0       78.9       81.1       67.8       0.00       0.00      0.000
10:00am           198          0          5         61         64       77.1       80.8      29.10       0.00       80.8       79.0       83.4       67.5       0.00       0.00      0.000
10:30am           192          0          4         61         70       77.4       78.9      29.10       0.00       78.9       79.3       81.9       68.3       0.00       0.00      0.000
11:00am           335          0          5         62         64       77.7       80.2      29.09       0.00       80.2       79.7       82.5       66.9       0.00       0.00      0.000
11:30am           287          0          7         59         57       77.7       82.8      29.08       0.00       82.8       79.4       85.0       66.0       0.00       0.00      0.000
12:00pm           289          1          6         59         54       77.8       87.0      29.07       0.00       87.0       79.5       90.8       68.4       0.00       0.00      0.000
12:30pm           321          0          9         59         55       78.3       85.0      29.06       0.00       85.0       80.0       87.8       67.0       0.00       0.00      0.000
1:00pm            336          1         10         59         54       78.4       86.8      29.06       0.00       86.8       80.1       90.4       68.2       0.00       0.00      0.000
1:30pm            310          0          9         59         54       78.8       87.7      29.05       0.00       87.7       80.5       92.0       69.0       0.00       0.00      0.000
2:00pm            322          4         10         59         56       79.0       86.8      29.04       0.00       86.8       80.7       91.1       69.2       0.00       0.00      0.000
2:30pm            355          5         11         58         57       79.0       86.1      29.04       0.00       86.1       80.6       90.2       69.1       0.00       0.00      0.000
3:00pm            350          4         10         54         57       79.0       85.7      29.03       0.00       85.7       80.2       89.5       68.7       0.00       0.00      0.000
3:30pm            311          0         11         53         59       78.8       84.7      29.02       0.00       84.7       79.9       88.4       68.8       0.00       0.00      0.000
4:00pm              9          4         11         52         60       79.0       84.2      29.01       0.00       84.2       80.0       87.9       68.8       0.00       0.00      0.000
4:30pm            336          2         10         47         61       78.1       84.5      29.01       0.00       84.5       78.6       88.7       69.6       0.00       0.00      0.000
5:00pm            231          2         12         46         58       77.6       85.6      29.00       0.00       85.6       78.0       89.7       69.1       0.00       0.00      0.000
5:30pm            145          0          8         46         61       77.3       83.7      29.00       0.00       83.7       77.7       87.3       68.8       0.00       0.00      0.000
6:00pm            195          1          9         46         59       77.2       84.3      29.00       0.00       84.3       77.6       87.8       68.4       0.00       0.00      0.000
6:30pm            179          0          8         46         64       77.2       80.7      29.00       0.00       80.7       77.6       83.2       67.4       0.00       0.00      0.000
7:00pm            202          1          8         45         67       77.0       78.4      29.00       0.00       78.4       77.3       81.0       66.5       0.00       0.00      0.000
7:30pm            231          0          5         45         72       76.7       76.4      29.01       0.00       76.4       77.0       79.6       66.7       0.00       0.00      0.000
8:00pm            265          1          4         44         75       76.5       74.5      29.01       0.00       74.5       76.8       78.1       66.1       0.00       0.00      0.000
8:30pm            215          0          4         47         80       77.1       73.9      29.01       0.00       73.9       77.6       78.1       67.3       0.00       0.00      0.000
9:00pm            183          0          2         58         81       78.4       72.7      29.02       0.00       72.7       80.0       77.1       66.5       0.00       0.00      0.000
9:30pm            267          0          3         59         83       78.5       72.2      29.03       0.00       72.2       80.2       76.8       66.8       0.00       0.00      0.000
10:00pm           267          0          1         60         84       78.0       71.2      29.02       0.00       71.2       79.8       76.0       66.1       0.00       0.00      0.000
10:30pm           258          0          1         61         85       77.4       70.8      29.03       0.00       70.8       79.3       75.7       66.1       0.00       0.00      0.000
11:00pm           188          0          3         62         85       77.0       70.3      29.03       0.00       70.3       79.0       75.2       65.6       0.00       0.00      0.000
11:30pm           184          0          3         63         87       76.5       69.7      29.03       0.00       69.7       78.6       74.9       65.7       0.00       0.00      0.000